createdAt,value
2022-09-10T00:02:42.363Z,3.22
2022-09-10T00:05:46.481Z,2.40
2022-09-10T00:08:49.364Z,2.13
2022-09-10T00:11:51.762Z,3.33
2022-09-10T00:14:54.456Z,3.13
2022-09-10T00:17:56.584Z,3.13
2022-09-10T00:21:00.655Z,2.95
2022-09-10T00:24:05.354Z,2.70
2022-09-10T00:27:07.596Z,3.95
2022-09-10T00:30:10.213Z,2.05
2022-09-10T00:33:13.454Z,2.78
2022-09-10T00:36:25.211Z,3.08
2022-09-10T00:39:27.694Z,2.70
2022-09-10T00:42:30.707Z,2.67
2022-09-10T00:45:36.870Z,2.33
2022-09-10T00:48:39.174Z,2.30
2022-09-10T00:51:42.324Z,2.70
2022-09-10T00:54:46.456Z,2.17
2022-09-10T00:57:54.951Z,2.20
2022-09-10T01:01:01.621Z,2.58
2022-09-10T01:04:06.433Z,2.58
2022-09-10T01:07:10.727Z,3.03
2022-09-10T01:10:24.975Z,2.28
2022-09-10T01:13:38.587Z,2.67
2022-09-10T01:17:05.009Z,3.72
2022-09-10T01:20:38.341Z,3.63
2022-09-10T01:23:58.453Z,3.45
2022-09-10T01:27:26.500Z,2.88
2022-09-10T01:30:41.908Z,2.35
2022-09-10T01:33:54.400Z,3.70
2022-09-10T01:37:04.401Z,3.50
2022-09-10T01:43:11.853Z,2.83
2022-09-10T01:46:41.804Z,3.15
2022-09-10T01:50:09.232Z,2.72
2022-09-10T01:53:34.320Z,2.20
2022-09-10T01:57:01.697Z,1.75
2022-09-10T02:00:14.415Z,2.83
2022-09-10T02:03:22.868Z,1.80
2022-09-10T02:06:30.678Z,3.75
2022-09-10T02:09:34.822Z,2.88
2022-09-10T02:12:37.312Z,1.65
2022-09-10T02:15:59.647Z,1.55
2022-09-10T02:19:08.298Z,1.48
2022-09-10T02:22:11.187Z,2.50
2022-09-10T02:25:13.351Z,1.25
2022-09-10T02:28:15.759Z,2.45
2022-09-10T02:31:18.924Z,2.00
2022-09-10T02:34:21.800Z,1.92
2022-09-10T02:37:25.373Z,1.10
2022-09-10T02:40:31.604Z,1.30
2022-09-10T02:43:38.407Z,2.97
2022-09-10T02:46:40.900Z,1.77
2022-09-10T02:49:43.320Z,2.67
2022-09-10T02:52:46.409Z,1.45
2022-09-10T02:55:48.945Z,1.58
2022-09-10T02:58:51.623Z,1.38
2022-09-10T03:01:54.855Z,1.42
2022-09-10T03:04:58.124Z,0.70
2022-09-10T03:08:01.177Z,1.52
2022-09-10T03:11:04.988Z,0.98
2022-09-10T03:14:10.696Z,2.28
2022-09-10T03:17:13.224Z,1.80
2022-09-10T03:20:16.015Z,0.98
2022-09-10T03:23:19.076Z,1.67
2022-09-10T03:26:25.285Z,1.80
2022-09-10T03:29:30.200Z,1.55
2022-09-10T03:32:34.415Z,1.45
2022-09-10T03:35:36.814Z,1.63
2022-09-10T03:38:39.380Z,0.88
2022-09-10T03:41:41.938Z,0.70
2022-09-10T03:44:44.702Z,1.27
2022-09-10T03:47:48.114Z,2.08
2022-09-10T03:50:53.565Z,1.58
2022-09-10T03:53:55.862Z,1.48
2022-09-10T03:56:59.104Z,1.88
2022-09-10T04:00:01.921Z,1.40
2022-09-10T04:03:05.773Z,1.25
2022-09-10T04:06:16.311Z,3.53
2022-09-10T04:09:18.505Z,1.73
2022-09-10T04:12:20.688Z,3.50
2022-09-10T04:15:24.792Z,1.60
2022-09-10T04:18:30.198Z,1.42
2022-09-10T04:21:32.419Z,1.42
2022-09-10T04:24:34.724Z,1.33
2022-09-10T04:27:37.040Z,1.15
2022-09-10T04:30:40.380Z,1.63
2022-09-10T04:33:43.315Z,1.40
2022-09-10T04:36:46.421Z,1.55
2022-09-10T04:39:49.053Z,2.10
2022-09-10T04:42:51.465Z,2.22
2022-09-10T04:45:56.859Z,1.48
2022-09-10T04:49:00.912Z,2.22
2022-09-10T04:52:03.513Z,1.08
2022-09-10T04:55:06.217Z,1.80
2022-09-10T04:58:08.549Z,1.35
2022-09-10T05:01:11.624Z,1.58
2022-09-10T05:04:13.850Z,2.65
2022-09-10T05:07:18.011Z,1.77
2022-09-10T05:10:20.659Z,1.65
2022-09-10T05:13:24.324Z,2.03
2022-09-10T05:16:26.635Z,1.63
2022-09-10T05:19:29.180Z,2.55
2022-09-10T05:22:40.458Z,2.47
2022-09-10T05:25:47.989Z,2.50
2022-09-10T05:28:53.414Z,2.25
2022-09-10T05:31:56.415Z,2.17
2022-09-10T05:35:00.411Z,2.42
2022-09-10T05:38:15.825Z,3.47
2022-09-10T05:48:31.485Z,2.10
2022-09-10T05:51:33.949Z,2.75
2022-09-10T05:54:49.019Z,3.97
2022-09-10T05:57:51.461Z,3.08
2022-09-10T06:00:55.531Z,2.78
2022-09-10T06:03:58.440Z,3.20
2022-09-10T06:07:06.397Z,1.83
2022-09-10T06:10:30.721Z,1.85
2022-09-10T06:13:34.325Z,2.47
2022-09-10T06:16:43.422Z,2.55
2022-09-10T06:19:46.711Z,1.95
2022-09-10T06:26:37.173Z,3.92
2022-09-10T06:29:45.039Z,2.20
2022-09-10T06:32:48.259Z,2.58
2022-09-10T06:35:59.117Z,2.17
2022-09-10T06:39:03.569Z,2.20
2022-09-10T06:42:14.153Z,2.00
2022-09-10T06:45:42.159Z,4.03
2022-09-10T06:49:13.404Z,2.83
2022-09-10T06:52:19.095Z,3.05
2022-09-10T06:55:23.589Z,2.45
2022-09-10T06:58:25.803Z,3.60
2022-09-10T07:01:28.594Z,3.95
2022-09-10T07:04:34.153Z,3.50
2022-09-10T07:07:36.993Z,4.60
2022-09-10T07:10:44.379Z,2.85
2022-09-10T07:13:52.043Z,1.70
2022-09-10T07:16:57.052Z,1.73
2022-09-10T07:20:02.811Z,2.67
2022-09-10T07:23:21.733Z,2.40
2022-09-10T07:26:26.737Z,2.50
2022-09-10T07:29:31.275Z,2.05
2022-09-10T07:32:35.319Z,2.33
2022-09-10T07:35:45.756Z,1.80
2022-09-10T07:38:52.467Z,1.63
2022-09-10T07:41:54.858Z,2.53
2022-09-10T07:45:00.845Z,2.28
2022-09-10T07:48:03.605Z,3.97
2022-09-10T07:51:11.319Z,3.78
2022-09-10T07:54:16.066Z,3.63
2022-09-10T07:57:28.736Z,3.22
2022-09-10T08:00:31.014Z,2.20
2022-09-10T08:03:38.627Z,1.73
2022-09-10T08:06:40.977Z,2.75
2022-09-10T08:09:43.405Z,1.75
2022-09-10T08:12:50.539Z,4.80
2022-09-10T08:15:52.841Z,1.95
2022-09-10T08:19:00.296Z,2.30
2022-09-10T08:22:04.635Z,2.33
2022-09-10T08:25:13.968Z,1.90
2022-09-10T08:28:22.457Z,1.70
2022-09-10T08:31:27.766Z,1.40
2022-09-10T08:34:36.217Z,2.10
2022-09-10T08:37:42.295Z,1.88
2022-09-10T08:40:44.811Z,1.70
2022-09-10T08:43:56.744Z,2.97
2022-09-10T08:47:01.372Z,1.52
2022-09-10T08:50:16.554Z,2.33
2022-09-10T08:53:32.763Z,1.50
2022-09-10T08:56:35.075Z,1.92
2022-09-10T08:59:44.716Z,2.17
2022-09-10T09:03:10.173Z,1.92
2022-09-10T09:06:41.540Z,1.77
2022-09-10T09:09:45.665Z,1.38
2022-09-10T09:13:18.174Z,2.10
2022-09-10T09:17:05.298Z,1.17
2022-09-10T09:20:36.640Z,1.75
2022-09-10T09:24:12.274Z,1.95
2022-09-10T09:27:20.271Z,1.67
2022-09-10T09:30:33.677Z,6.35
2022-09-10T09:33:39.796Z,2.65
2022-09-10T09:36:49.133Z,6.20
2022-09-10T09:40:17.414Z,2.15
2022-09-10T09:43:31.382Z,2.55
2022-09-10T09:46:34.849Z,1.83
2022-09-10T09:49:40.474Z,2.28
2022-09-10T09:52:44.370Z,2.08
2022-09-10T09:55:52.177Z,2.45
2022-09-10T09:58:54.457Z,4.82
2022-09-10T10:02:33.617Z,2.25
2022-09-10T10:05:36.244Z,1.35
2022-09-10T10:08:54.398Z,3.08
2022-09-10T10:12:05.993Z,2.83
2022-09-10T10:15:38.877Z,3.08
2022-09-10T10:18:43.096Z,2.30
2022-09-10T10:21:47.318Z,2.08
2022-09-10T10:24:52.761Z,2.58
2022-09-10T10:27:54.895Z,2.33
2022-09-10T10:31:00.740Z,4.68
2022-09-10T10:34:28.707Z,2.00
2022-09-10T10:38:01.858Z,1.67
2022-09-10T10:41:37.661Z,2.05
2022-09-10T10:45:08.297Z,2.22
2022-09-10T10:48:37.704Z,1.90
2022-09-10T10:52:15.542Z,1.98
2022-09-10T10:55:17.730Z,1.55
2022-09-10T10:58:44.485Z,1.98
2022-09-10T11:02:20.666Z,1.55
2022-09-10T11:05:39.479Z,1.40
2022-09-10T11:09:02.555Z,1.85
2022-09-10T11:12:28.817Z,2.20
2022-09-10T11:15:55.790Z,2.05
2022-09-10T11:19:35.744Z,1.45
2022-09-10T11:22:49.017Z,2.58
2022-09-10T11:26:43.405Z,2.08
2022-09-10T11:30:10.506Z,1.35
2022-09-10T11:33:20.305Z,1.98
2022-09-10T11:36:32.356Z,3.10
2022-09-10T11:43:42.427Z,1.85
2022-09-10T11:47:07.956Z,1.45
2022-09-10T11:50:23.218Z,1.25
2022-09-10T11:53:26.020Z,2.05
2022-09-10T11:56:43.879Z,1.85
2022-09-10T12:00:07.707Z,2.10
2022-09-10T12:03:33.233Z,1.48
2022-09-10T12:07:04.562Z,1.35
2022-09-10T12:10:25.401Z,1.30
2022-09-10T12:13:27.974Z,2.28
2022-09-10T12:16:42.872Z,1.80
2022-09-10T12:19:49.548Z,1.10
2022-09-10T12:22:54.932Z,1.98
2022-09-10T12:26:08.954Z,3.78
2022-09-10T12:29:26.775Z,1.42
2022-09-10T12:32:30.176Z,1.55
2022-09-10T12:35:35.515Z,2.53
2022-09-10T12:39:16.564Z,1.52
2022-09-10T12:42:31.135Z,1.42
2022-09-10T12:46:04.872Z,1.13
2022-09-10T12:49:13.605Z,1.50
2022-09-10T12:52:40.997Z,1.60
2022-09-10T12:55:55.476Z,1.95
2022-09-10T12:59:10.058Z,1.30
2022-09-10T13:02:29.390Z,0.90
2022-09-10T13:05:51.463Z,3.15
2022-09-10T13:08:54.915Z,1.52
2022-09-10T13:12:04.099Z,1.15
2022-09-10T13:15:07.186Z,1.65
2022-09-10T13:18:09.418Z,1.42
2022-09-10T13:21:40.448Z,1.73
2022-09-10T13:25:03.943Z,1.15
2022-09-10T13:28:31.523Z,1.05
2022-09-10T13:31:36.441Z,1.73
2022-09-10T13:35:01.590Z,1.27
2022-09-10T13:38:31.563Z,2.22
2022-09-10T13:45:00.559Z,3.83
2022-09-10T13:48:24.016Z,4.07
2022-09-10T13:51:47.870Z,2.22
2022-09-10T13:54:55.191Z,1.73
2022-09-10T13:58:20.074Z,2.67
2022-09-10T14:01:52.559Z,2.35
2022-09-10T14:04:55.596Z,5.43
2022-09-10T14:08:12.938Z,2.05
2022-09-10T14:11:23.549Z,1.60
2022-09-10T14:14:30.655Z,1.95
2022-09-10T14:17:43.225Z,1.90
2022-09-10T14:20:45.637Z,2.40
2022-09-10T14:23:49.134Z,2.95
2022-09-10T14:27:06.650Z,2.20
2022-09-10T14:30:24.094Z,2.30
2022-09-10T14:33:35.361Z,2.20
2022-09-10T14:36:37.457Z,3.78
2022-09-10T14:39:44.638Z,2.85
2022-09-10T14:42:49.031Z,3.10
2022-09-10T14:45:51.809Z,5.70
2022-09-10T14:49:00.395Z,2.78
2022-09-10T14:52:03.707Z,3.03
2022-09-10T14:55:06.399Z,3.42
2022-09-10T14:58:10.368Z,3.20
2022-09-10T15:01:12.604Z,3.45
2022-09-10T15:04:17.589Z,3.67
2022-09-10T15:07:19.925Z,3.35
2022-09-10T15:10:22.327Z,3.10
2022-09-10T15:13:24.605Z,2.28
2022-09-10T15:16:29.739Z,6.45
2022-09-10T15:19:32.193Z,3.50
2022-09-10T15:22:34.605Z,4.82
2022-09-10T15:25:50.584Z,3.67
2022-09-10T15:28:52.914Z,2.63
2022-09-10T15:31:59.588Z,1.33
2022-09-10T15:35:01.825Z,3.53
2022-09-10T15:38:03.979Z,2.63
2022-09-10T15:41:14.040Z,4.35
2022-09-10T15:44:16.221Z,3.28
2022-09-10T15:47:18.326Z,1.83
2022-09-10T15:50:20.477Z,4.75
2022-09-10T15:53:22.647Z,2.47
2022-09-10T15:56:26.663Z,1.45
2022-09-10T15:59:28.864Z,2.38
2022-09-10T16:02:31.114Z,2.65
2022-09-10T16:05:35.347Z,2.80
2022-09-10T16:08:37.514Z,3.72
2022-09-10T16:11:42.120Z,3.40
2022-09-10T16:14:45.426Z,3.30
2022-09-10T16:17:47.593Z,6.53
2022-09-10T16:20:49.790Z,7.53
2022-09-10T16:23:53.803Z,14.60
2022-09-10T16:26:56.176Z,11.65
2022-09-10T16:29:58.365Z,13.85
2022-09-10T16:33:00.937Z,11.02
2022-09-10T16:36:06.833Z,10.10
2022-09-10T16:39:12.575Z,9.57
2022-09-10T16:42:14.902Z,9.25
2022-09-10T16:45:17.171Z,8.48
2022-09-10T16:48:19.345Z,6.95
2022-09-10T16:51:23.700Z,8.70
2022-09-10T16:54:26.734Z,8.68
2022-09-10T16:57:29.413Z,7.05
2022-09-10T17:00:31.932Z,8.43
2022-09-10T17:03:34.098Z,5.97
2022-09-10T17:06:36.879Z,7.20
2022-09-10T17:09:39.250Z,8.18
2022-09-10T17:12:43.034Z,4.47
2022-09-10T17:15:45.572Z,6.13
2022-09-10T17:18:48.617Z,3.92
2022-09-10T17:21:53.183Z,6.13
2022-09-10T17:24:56.193Z,4.57
2022-09-10T17:27:59.131Z,5.22
2022-09-10T17:31:01.463Z,4.57
2022-09-10T17:34:04.634Z,7.22
2022-09-10T17:37:06.844Z,4.70
2022-09-10T17:40:09.493Z,4.38
2022-09-10T17:43:13.873Z,5.75
2022-09-10T17:46:19.111Z,3.92
2022-09-10T17:49:21.461Z,4.75
2022-09-10T17:52:23.529Z,6.57
2022-09-10T17:55:26.553Z,3.60
2022-09-10T17:58:40.294Z,4.10
2022-09-10T18:01:43.091Z,3.90
2022-09-10T18:04:49.322Z,4.35
2022-09-10T18:07:51.443Z,4.47
2022-09-10T18:11:02.196Z,4.60
2022-09-10T18:17:06.537Z,4.28
2022-09-10T18:20:09.310Z,3.70
2022-09-10T18:23:11.487Z,3.97
2022-09-10T18:26:15.446Z,3.92
2022-09-10T18:29:26.456Z,3.17
2022-09-10T18:32:28.517Z,3.22
2022-09-10T18:35:30.786Z,3.08
2022-09-10T18:38:32.867Z,2.75
2022-09-10T18:41:38.745Z,3.42
2022-09-10T18:44:41.218Z,4.50
2022-09-10T18:47:45.336Z,3.13
2022-09-10T18:50:47.648Z,3.97
2022-09-10T18:53:53.746Z,4.20
2022-09-10T18:56:56.261Z,4.43
2022-09-10T18:59:58.439Z,3.05
2022-09-10T19:03:00.710Z,3.03
2022-09-10T19:06:15.277Z,3.67
2022-09-10T19:09:25.724Z,3.83
2022-09-10T19:12:27.940Z,2.72
2022-09-10T19:15:30.008Z,3.13
2022-09-10T19:18:32.815Z,3.20
2022-09-10T19:21:36.657Z,2.80
2022-09-10T19:24:55.580Z,3.63
2022-09-10T19:27:58.197Z,3.20
2022-09-10T19:31:03.445Z,3.13
2022-09-10T19:34:07.521Z,3.85
2022-09-10T19:37:10.048Z,3.17
2022-09-10T19:40:12.650Z,3.20
2022-09-10T19:43:15.715Z,3.00
2022-09-10T19:46:19.887Z,2.90
2022-09-10T19:49:22.360Z,3.92
2022-09-10T19:52:25.647Z,4.32
2022-09-10T19:55:27.748Z,3.33
2022-09-10T19:58:29.921Z,3.92
2022-09-10T20:01:33.479Z,3.45
2022-09-10T20:04:35.990Z,3.10
2022-09-10T20:07:38.162Z,3.47
2022-09-10T20:10:40.533Z,3.30
2022-09-10T20:13:43.150Z,4.70
2022-09-10T20:16:45.843Z,3.28
2022-09-10T20:19:47.991Z,4.63
2022-09-10T20:22:50.209Z,3.33
2022-09-10T20:25:52.335Z,3.45
2022-09-10T20:29:19.277Z,4.72
2022-09-10T20:32:21.548Z,3.95
2022-09-10T20:35:23.665Z,3.67
2022-09-10T20:38:26.579Z,3.25
2022-09-10T20:41:30.721Z,4.13
2022-09-10T20:44:32.985Z,3.33
2022-09-10T20:47:42.972Z,3.00
2022-09-10T20:50:59.066Z,4.25
2022-09-10T20:54:05.451Z,3.22
2022-09-10T20:57:07.851Z,3.80
2022-09-10T21:00:11.607Z,3.47
2022-09-10T21:03:13.990Z,4.35
2022-09-10T21:06:18.548Z,3.67
2022-09-10T21:09:20.710Z,3.97
2022-09-10T21:12:22.910Z,3.60
2022-09-10T21:15:25.237Z,4.15
2022-09-10T21:18:28.333Z,3.70
2022-09-10T21:21:34.214Z,3.28
2022-09-10T21:24:36.388Z,3.25
2022-09-10T21:27:38.519Z,4.13
2022-09-10T21:30:40.706Z,5.32
2022-09-10T21:33:43.535Z,3.70
2022-09-10T21:36:45.716Z,3.78
2022-09-10T21:43:15.973Z,2.88
2022-09-10T21:46:18.744Z,4.70
2022-09-10T21:49:21.251Z,3.47
2022-09-10T21:52:24.165Z,3.33
2022-09-10T21:55:26.296Z,3.92
2022-09-10T21:58:30.886Z,4.10
2022-09-10T22:01:33.122Z,3.72
2022-09-10T22:04:35.431Z,2.90
2022-09-10T22:07:37.561Z,3.20
2022-09-10T22:10:43.816Z,2.67
2022-09-10T22:13:52.000Z,3.13
2022-09-10T22:16:54.305Z,3.65
2022-09-10T22:20:02.699Z,3.63
2022-09-10T22:23:28.139Z,3.67
2022-09-10T22:26:33.540Z,2.90
2022-09-10T22:29:35.685Z,2.92
2022-09-10T22:32:37.816Z,3.30
2022-09-10T22:35:39.961Z,2.75
2022-09-10T22:38:53.439Z,3.85
2022-09-10T22:41:55.583Z,3.15
2022-09-10T22:44:58.085Z,3.25
2022-09-10T22:48:00.229Z,3.72
2022-09-10T22:51:02.389Z,3.28
2022-09-10T22:54:06.082Z,3.03
2022-09-10T22:57:08.665Z,2.67
2022-09-10T23:00:13.762Z,3.70
2022-09-10T23:03:16.316Z,2.85
2022-09-10T23:06:21.045Z,4.30
2022-09-10T23:09:23.379Z,2.83
2022-09-10T23:12:25.639Z,2.92
2022-09-10T23:15:31.686Z,3.28
2022-09-10T23:18:33.823Z,2.67
2022-09-10T23:21:36.931Z,2.60
2022-09-10T23:24:39.050Z,2.78
2022-09-10T23:31:27.953Z,3.17
2022-09-10T23:34:30.128Z,2.50
2022-09-10T23:41:16.134Z,2.30
2022-09-10T23:44:18.415Z,3.90
2022-09-10T23:50:48.230Z,2.72
2022-09-10T23:53:50.538Z,2.72
2022-09-10T23:56:52.692Z,2.30
2022-09-10T23:59:55.185Z,2.80
